Riverside, Utah
Current Conditions -  °F | °C
As of 8:51 PM on Wednesday 17 Dec 2014 (Local Time) from KLGU Reporting Station
Overcast Overcast  
Wind Chill: 26°   Ceiling: 6000
Heat Index: 31°   Visibility: 10mi
Dew Point: 28°   Wind: 5mph
Humidity: 89%   Direction: 50°NE
Pressure: 30.05"   Gusts: NA
Location:  41.78°N, 112.14°W
Report Text: KLGU 180351Z AUTO 05004KT 10SM OVC060 M01/M02 A3005 RMK AO2 SLP192 T10061022
Loading
Personal Weather Stations






























Interactive Weather Map New forecast layout! Learn more

10-Day Weather Forecast

Advertisements
Track Severe Weather on mobile